Time,TemperatureF,DewpointF,PressureIn,WindDirection,WindDirectionDegrees,WindSpeedMPH,WindSpeedGustMPH,Humidity,HourlyPrecipIn,Conditions,Clouds,dailyrainin,SoftwareType,DateUTC
2013-09-30 00:01:00,44.1,40.8,30.09,NNW,338,0.0,0.0,88,0.00,,,0.00,WUHU216HW,2013-09-30 04:01:00,
2013-09-30 00:06:00,43.9,40.6,30.09,NNW,338,0.0,0.0,88,0.00,,,0.00,WUHU216HW,2013-09-30 04:06:00,
2013-09-30 00:11:00,43.7,40.4,30.09,NNW,338,0.0,0.0,88,0.00,,,0.00,WUHU216HW,2013-09-30 04:11:00,
2013-09-30 00:16:00,43.6,40.2,30.09,NNE,23,0.4,0.4,88,0.00,,,0.00,WUHU216HW,2013-09-30 04:16:00,
2013-09-30 00:21:00,43.4,40.1,30.09,NNE,23,0.0,0.4,88,0.00,,,0.00,WUHU216HW,2013-09-30 04:21:00,
2013-09-30 00:26:00,43.2,39.6,30.09,NNE,23,0.4,0.9,87,0.00,,,0.00,WUHU216HW,2013-09-30 04:26:00,
2013-09-30 00:31:00,43.0,39.4,30.09,NNW,338,1.1,1.1,87,0.00,,,0.00,WUHU216HW,2013-09-30 04:31:00,
2013-09-30 00:36:00,42.8,39.3,30.09,NW,315,0.4,1.1,87,0.00,,,0.00,WUHU216HW,2013-09-30 04:36:00,
2013-09-30 00:41:00,42.8,39.3,30.09,NNW,338,0.0,1.1,87,0.00,,,0.00,WUHU216HW,2013-09-30 04:41:00,
2013-09-30 00:46:00,42.7,39.1,30.09,NNW,338,0.0,0.4,87,0.00,,,0.00,WUHU216HW,2013-09-30 04:46:00,
2013-09-30 00:51:00,42.5,38.9,30.09,NNW,338,0.0,0.0,87,0.00,,,0.00,WUHU216HW,2013-09-30 04:51:00,
2013-09-30 00:56:00,42.3,39.0,30.09,NNW,338,0.0,0.2,88,0.00,,,0.00,WUHU216HW,2013-09-30 04:56:00,
2013-09-30 01:01:00,42.3,39.0,30.09,NNW,338,0.0,0.2,88,0.00,,,0.00,WUHU216HW,2013-09-30 05:01:00,
2013-09-30 01:06:00,42.1,38.8,30.09,NNW,338,0.0,0.0,88,0.00,,,0.00,WUHU216HW,2013-09-30 05:06:00,
2013-09-30 01:11:00,42.1,38.8,30.09,NNW,338,0.2,0.7,88,0.00,,,0.00,WUHU216HW,2013-09-30 05:11:00,
2013-09-30 01:16:00,42.1,38.8,30.09,NNW,338,0.4,0.7,88,0.00,,,0.00,WUHU216HW,2013-09-30 05:16:00,
2013-09-30 01:21:00,42.1,38.8,30.09,NNW,338,0.0,0.4,88,0.00,,,0.00,WUHU216HW,2013-09-30 05:21:00,
2013-09-30 01:26:00,42.1,38.8,30.09,North,0,0.2,0.4,88,0.00,,,0.00,WUHU216HW,2013-09-30 05:26:00,
2013-09-30 01:31:00,41.9,39.0,30.09,WNW,293,1.1,1.1,89,0.00,,,0.00,WUHU216HW,2013-09-30 05:31:00,
2013-09-30 01:36:00,41.9,39.0,30.10,NE,45,0.0,1.1,89,0.00,,,0.00,WUHU216HW,2013-09-30 05:36:00,
2013-09-30 01:41:00,42.1,39.2,30.09,SE,135,1.1,1.3,89,0.00,,,0.00,WUHU216HW,2013-09-30 05:41:00,
2013-09-30 01:46:00,42.7,39.7,30.09,SE,135,0.0,1.3,89,0.00,,,0.00,WUHU216HW,2013-09-30 05:46:00,
2013-09-30 01:51:00,43.0,40.1,30.09,NNE,23,0.7,1.1,89,0.00,,,0.00,WUHU216HW,2013-09-30 05:51:00,
2013-09-30 01:56:00,43.4,40.4,30.08,North,0,0.0,0.7,89,0.00,,,0.00,WUHU216HW,2013-09-30 05:56:00,
2013-09-30 02:01:00,43.6,40.6,30.08,North,0,0.0,0.7,89,0.00,,,0.00,WUHU216HW,2013-09-30 06:01:00,
2013-09-30 02:06:00,43.6,40.6,30.08,NNW,338,0.0,0.0,89,0.00,,,0.00,WUHU216HW,2013-09-30 06:06:00,
2013-09-30 02:11:00,43.4,40.4,30.08,NNW,338,0.0,0.0,89,0.00,,,0.00,WUHU216HW,2013-09-30 06:11:00,
2013-09-30 02:16:00,43.4,40.4,30.08,WNW,293,0.7,1.1,89,0.00,,,0.00,WUHU216HW,2013-09-30 06:16:00,
2013-09-30 02:21:00,43.4,40.4,30.08,NNW,338,0.0,1.1,89,0.00,,,0.00,WUHU216HW,2013-09-30 06:21:00,
2013-09-30 02:26:00,43.6,40.6,30.07,NNW,338,0.0,0.7,89,0.00,,,0.00,WUHU216HW,2013-09-30 06:26:00,
2013-09-30 02:31:00,43.6,40.9,30.07,NE,45,0.0,0.0,90,0.00,,,0.00,WUHU216HW,2013-09-30 06:31:00,
2013-09-30 02:36:00,43.6,40.9,30.07,NNW,338,0.0,0.0,90,0.00,,,0.00,WUHU216HW,2013-09-30 06:36:00,
2013-09-30 02:41:00,43.6,40.9,30.07,NNW,338,0.0,0.0,90,0.00,,,0.00,WUHU216HW,2013-09-30 06:41:00,
2013-09-30 02:46:00,43.7,41.0,30.07,North,0,0.0,0.0,90,0.00,,,0.00,WUHU216HW,2013-09-30 06:46:00,
2013-09-30 02:51:00,43.6,40.9,30.07,NE,45,2.2,2.2,90,0.00,,,0.00,WUHU216HW,2013-09-30 06:51:00,
2013-09-30 02:56:00,43.6,41.1,30.07,NE,45,0.7,2.2,91,0.00,,,0.00,WUHU216HW,2013-09-30 06:56:00,
2013-09-30 03:01:00,43.6,40.9,30.07,North,0,0.4,2.2,90,0.00,,,0.00,WUHU216HW,2013-09-30 07:01:00,
2013-09-30 03:06:00,43.6,40.9,30.07,NW,315,0.0,0.9,90,0.00,,,0.00,WUHU216HW,2013-09-30 07:06:00,
2013-09-30 03:11:00,43.6,40.9,30.07,NNW,338,0.4,0.7,90,0.00,,,0.00,WUHU216HW,2013-09-30 07:11:00,
2013-09-30 03:16:00,43.6,40.9,30.07,NW,315,0.9,0.9,90,0.00,,,0.00,WUHU216HW,2013-09-30 07:16:00,
2013-09-30 03:21:00,43.6,40.9,30.07,NW,315,0.0,0.9,90,0.00,,,0.00,WUHU216HW,2013-09-30 07:21:00,
2013-09-30 03:26:00,43.6,40.9,30.07,NNW,338,0.0,0.9,90,0.00,,,0.00,WUHU216HW,2013-09-30 07:26:00,
2013-09-30 03:31:00,43.6,40.9,30.07,NNW,338,0.2,0.7,90,0.00,,,0.00,WUHU216HW,2013-09-30 07:31:00,
2013-09-30 03:36:00,43.4,40.7,30.07,North,0,0.0,0.7,90,0.00,,,0.00,WUHU216HW,2013-09-30 07:36:00,
2013-09-30 03:41:00,43.4,40.7,30.07,ENE,68,1.1,1.1,90,0.00,,,0.00,WUHU216HW,2013-09-30 07:41:00,
2013-09-30 03:47:00,43.2,40.5,30.07,North,0,0.4,1.1,90,0.00,,,0.00,WUHU216HW,2013-09-30 07:47:00,
2013-09-30 03:52:00,43.2,40.5,30.07,NNW,338,0.0,1.1,90,0.00,,,0.00,WUHU216HW,2013-09-30 07:52:00,
2013-09-30 03:57:00,43.2,40.5,30.07,NNW,338,0.0,0.0,90,0.00,,,0.00,WUHU216HW,2013-09-30 07:57:00,
2013-09-30 04:02:00,43.2,40.5,30.07,NNW,338,0.4,1.1,90,0.00,,,0.00,WUHU216HW,2013-09-30 08:02:00,
2013-09-30 04:07:00,43.6,40.9,30.07,North,0,0.0,1.1,90,0.00,,,0.00,WUHU216HW,2013-09-30 08:07:00,
2013-09-30 04:12:00,43.6,40.9,30.07,North,0,0.0,0.4,90,0.00,,,0.00,WUHU216HW,2013-09-30 08:12:00,
2013-09-30 04:17:00,43.7,41.0,30.07,North,0,0.0,0.4,90,0.00,,,0.00,WUHU216HW,2013-09-30 08:17:00,
2013-09-30 04:22:00,43.7,41.0,30.07,WNW,293,0.2,1.1,90,0.00,,,0.00,WUHU216HW,2013-09-30 08:22:00,
2013-09-30 04:27:00,43.7,41.0,30.07,NW,315,0.0,1.1,90,0.00,,,0.00,WUHU216HW,2013-09-30 08:27:00,
2013-09-30 04:32:00,43.7,41.0,30.07,NW,315,0.0,0.2,90,0.00,,,0.00,WUHU216HW,2013-09-30 08:32:00,
2013-09-30 04:37:00,43.7,41.0,30.07,West,270,0.0,0.7,90,0.00,,,0.00,WUHU216HW,2013-09-30 08:37:00,
2013-09-30 04:42:00,43.9,41.2,30.07,SW,225,0.0,0.7,90,0.00,,,0.00,WUHU216HW,2013-09-30 08:42:00,
2013-09-30 04:47:00,43.9,41.2,30.07,West,270,0.0,0.0,90,0.00,,,0.00,WUHU216HW,2013-09-30 08:47:00,
2013-09-30 04:52:00,43.9,41.2,30.07,North,0,0.2,0.4,90,0.00,,,0.00,WUHU216HW,2013-09-30 08:52:00,
2013-09-30 04:57:00,43.9,41.2,30.06,NNW,338,0.0,0.9,90,0.00,,,0.00,WUHU216HW,2013-09-30 08:57:00,
2013-09-30 05:02:00,43.9,41.2,30.07,North,0,0.2,0.9,90,0.00,,,0.00,WUHU216HW,2013-09-30 09:02:00,
2013-09-30 05:07:00,43.9,41.5,30.07,NE,45,1.3,3.4,91,0.00,,,0.00,WUHU216HW,2013-09-30 09:07:00,
2013-09-30 05:12:00,43.9,41.5,30.07,NE,45,1.1,3.4,91,0.00,,,0.00,WUHU216HW,2013-09-30 09:12:00,
2013-09-30 05:17:00,44.1,41.7,30.07,North,0,0.9,2.5,91,0.00,,,0.00,WUHU216HW,2013-09-30 09:17:00,
2013-09-30 05:22:00,44.1,41.7,30.07,NE,45,1.1,2.7,91,0.00,,,0.00,WUHU216HW,2013-09-30 09:22:00,
2013-09-30 05:27:00,44.1,41.9,30.07,ENE,68,3.4,4.0,92,0.00,,,0.00,WUHU216HW,2013-09-30 09:27:00,
2013-09-30 05:32:00,43.7,41.6,30.07,ESE,113,0.4,4.0,92,0.00,,,0.00,WUHU216HW,2013-09-30 09:32:00,
2013-09-30 05:37:00,43.7,41.6,30.07,North,0,0.7,3.6,92,0.00,,,0.00,WUHU216HW,2013-09-30 09:37:00,
2013-09-30 05:42:00,43.7,41.6,30.07,NNE,23,1.3,1.8,92,0.00,,,0.00,WUHU216HW,2013-09-30 09:42:00,
2013-09-30 05:47:00,43.6,41.4,30.07,NE,45,0.0,1.3,92,0.00,,,0.00,WUHU216HW,2013-09-30 09:47:00,
2013-09-30 05:52:00,43.6,41.4,30.07,North,0,0.4,1.6,92,0.00,,,0.00,WUHU216HW,2013-09-30 09:52:00,
2013-09-30 05:57:00,43.6,41.4,30.07,North,0,0.2,1.6,92,0.00,,,0.00,WUHU216HW,2013-09-30 09:57:00,
2013-09-30 06:02:00,43.6,41.1,30.07,NNE,23,0.4,1.1,91,0.00,,,0.00,WUHU216HW,2013-09-30 10:02:00,
2013-09-30 06:07:00,43.6,41.1,30.07,North,0,0.0,1.1,91,0.00,,,0.00,WUHU216HW,2013-09-30 10:07:00,
2013-09-30 06:12:00,43.6,41.1,30.07,North,0,0.0,0.4,91,0.00,,,0.00,WUHU216HW,2013-09-30 10:12:00,
2013-09-30 06:17:00,43.6,41.1,30.08,NNE,23,0.7,0.7,91,0.00,,,0.00,WUHU216HW,2013-09-30 10:17:00,
2013-09-30 06:22:00,43.6,41.1,30.08,North,0,0.0,1.1,91,0.00,,,0.00,WUHU216HW,2013-09-30 10:22:00,
2013-09-30 06:27:00,43.6,41.1,30.08,North,0,0.0,1.1,91,0.00,,,0.00,WUHU216HW,2013-09-30 10:27:00,
2013-09-30 06:32:00,43.6,41.1,30.08,ENE,68,0.9,1.1,91,0.00,,,0.00,WUHU216HW,2013-09-30 10:32:00,
2013-09-30 06:37:00,43.4,41.2,30.08,NNE,23,1.6,2.9,92,0.00,,,0.00,WUHU216HW,2013-09-30 10:37:00,
2013-09-30 06:42:00,43.4,41.2,30.08,SE,135,0.0,2.9,92,0.00,,,0.00,WUHU216HW,2013-09-30 10:42:00,
2013-09-30 06:47:00,43.6,41.4,30.08,ENE,68,0.4,1.6,92,0.00,,,0.00,WUHU216HW,2013-09-30 10:47:00,
2013-09-30 06:52:00,43.6,41.4,30.08,ENE,68,1.1,1.3,92,0.00,,,0.00,WUHU216HW,2013-09-30 10:52:00,
2013-09-30 06:57:00,43.4,41.2,30.08,NE,45,0.0,1.3,92,0.00,,,0.00,WUHU216HW,2013-09-30 10:57:00,
2013-09-30 07:02:00,43.6,41.4,30.08,NNE,23,0.0,1.1,92,0.00,,,0.00,WUHU216HW,2013-09-30 11:02:00,
2013-09-30 07:07:00,43.6,41.4,30.08,NE,45,1.1,1.1,92,0.00,,,0.00,WUHU216HW,2013-09-30 11:07:00,
2013-09-30 07:12:00,43.6,41.4,30.09,NNE,23,0.2,1.8,92,0.00,,,0.00,WUHU216HW,2013-09-30 11:12:00,
2013-09-30 07:17:00,43.6,41.4,30.09,ESE,113,0.0,1.8,92,0.00,,,0.00,WUHU216HW,2013-09-30 11:17:00,
2013-09-30 07:22:00,43.6,41.4,30.09,East,90,0.4,1.6,92,0.00,,,0.00,WUHU216HW,2013-09-30 11:22:00,
2013-09-30 07:27:00,43.7,41.6,30.09,North,0,0.2,1.6,92,0.00,,,0.00,WUHU216HW,2013-09-30 11:27:00,
2013-09-30 07:32:00,43.9,41.8,30.09,North,0,0.0,1.3,92,0.00,,,0.00,WUHU216HW,2013-09-30 11:32:00,
2013-09-30 07:37:00,43.9,41.8,30.09,NNW,338,0.4,1.3,92,0.00,,,0.00,WUHU216HW,2013-09-30 11:37:00,
2013-09-30 07:42:00,43.9,41.8,30.09,WNW,293,1.1,1.3,92,0.00,,,0.00,WUHU216HW,2013-09-30 11:42:00,
2013-09-30 07:47:00,44.1,41.9,30.09,NW,315,0.7,1.3,92,0.00,,,0.00,WUHU216HW,2013-09-30 11:47:00,
2013-09-30 07:52:00,44.3,42.1,30.09,NNW,338,0.4,1.1,92,0.00,,,0.00,WUHU216HW,2013-09-30 11:52:00,
2013-09-30 07:57:00,44.1,41.9,30.09,WSW,248,0.9,1.1,92,0.00,,,0.00,WUHU216HW,2013-09-30 11:57:00,
2013-09-30 08:02:00,44.3,42.1,30.09,East,90,0.4,1.1,92,0.00,,,0.00,WUHU216HW,2013-09-30 12:02:00,
2013-09-30 08:07:00,44.3,42.1,30.09,North,0,0.9,0.9,92,0.00,,,0.00,WUHU216HW,2013-09-30 12:07:00,
2013-09-30 08:12:00,44.6,42.5,30.09,North,0,0.0,0.9,92,0.00,,,0.00,WUHU216HW,2013-09-30 12:12:00,
2013-09-30 08:17:00,44.8,42.7,30.09,ENE,68,4.0,4.0,92,0.00,,,0.00,WUHU216HW,2013-09-30 12:17:00,
2013-09-30 08:22:00,44.5,42.3,30.09,NE,45,1.6,5.1,92,0.00,,,0.00,WUHU216HW,2013-09-30 12:22:00,
2013-09-30 08:27:00,44.6,42.5,30.09,ENE,68,2.5,5.1,92,0.00,,,0.00,WUHU216HW,2013-09-30 12:27:00,
2013-09-30 08:32:00,44.8,42.7,30.09,NW,315,1.3,2.7,92,0.00,,,0.00,WUHU216HW,2013-09-30 12:32:00,
2013-09-30 08:37:00,44.8,42.7,30.08,North,0,1.1,2.7,92,0.00,,,0.00,WUHU216HW,2013-09-30 12:37:00,
2013-09-30 08:42:00,45.0,42.8,30.08,East,90,0.7,2.2,92,0.00,,,0.00,WUHU216HW,2013-09-30 12:42:00,
2013-09-30 08:47:00,45.2,43.0,30.08,South,180,0.4,2.2,92,0.00,,,0.00,WUHU216HW,2013-09-30 12:47:00,
2013-09-30 08:52:00,45.4,43.2,30.07,NE,45,2.7,3.4,92,0.00,,,0.00,WUHU216HW,2013-09-30 12:52:00,
2013-09-30 08:57:00,45.5,43.4,30.07,North,0,0.4,3.4,92,0.00,,,0.00,WUHU216HW,2013-09-30 12:57:00,
2013-09-30 09:02:00,45.7,43.6,30.07,West,270,0.9,2.9,92,0.00,,,0.00,WUHU216HW,2013-09-30 13:02:00,
2013-09-30 09:07:00,46.3,44.4,30.07,NE,45,2.7,2.7,93,0.00,,,0.00,WUHU216HW,2013-09-30 13:07:00,
2013-09-30 09:12:00,46.3,44.4,30.08,NE,45,4.0,4.7,93,0.00,,,0.00,WUHU216HW,2013-09-30 13:12:00,
2013-09-30 09:17:00,46.1,44.2,30.08,NE,45,2.7,4.9,93,0.00,,,0.00,WUHU216HW,2013-09-30 13:17:00,
2013-09-30 09:22:00,46.1,44.2,30.08,ENE,68,1.8,4.9,93,0.00,,,0.00,WUHU216HW,2013-09-30 13:22:00,
2013-09-30 09:27:00,46.4,44.6,30.08,East,90,1.8,4.7,93,0.00,,,0.00,WUHU216HW,2013-09-30 13:27:00,
2013-09-30 09:32:00,47.0,45.1,30.08,East,90,3.1,3.1,93,0.00,,,0.00,WUHU216HW,2013-09-30 13:32:00,
2013-09-30 09:37:00,47.2,45.3,30.08,East,90,2.2,3.1,93,0.00,,,0.00,WUHU216HW,2013-09-30 13:37:00,
2013-09-30 09:42:00,47.9,45.7,30.08,NE,45,2.0,3.6,92,0.00,,,0.00,WUHU216HW,2013-09-30 13:42:00,
2013-09-30 09:47:00,48.1,45.9,30.07,ESE,113,2.9,3.6,92,0.00,,,0.00,WUHU216HW,2013-09-30 13:47:00,
2013-09-30 09:52:00,48.6,46.5,30.07,North,0,0.7,3.1,92,0.00,,,0.00,WUHU216HW,2013-09-30 13:52:00,
2013-09-30 09:57:00,49.3,47.1,30.07,ENE,68,0.7,2.9,92,0.00,,,0.00,WUHU216HW,2013-09-30 13:57:00,
2013-09-30 10:02:00,49.5,47.0,30.07,ENE,68,2.0,2.7,91,0.00,,,0.00,WUHU216HW,2013-09-30 14:02:00,
2013-09-30 10:07:00,49.5,47.0,30.07,ENE,68,1.3,2.7,91,0.00,,,0.00,WUHU216HW,2013-09-30 14:07:00,
2013-09-30 10:12:00,50.0,47.4,30.07,SSE,158,1.1,2.5,91,0.00,,,0.00,WUHU216HW,2013-09-30 14:12:00,
2013-09-30 10:17:00,50.9,48.3,30.07,South,180,2.7,2.7,91,0.00,,,0.00,WUHU216HW,2013-09-30 14:17:00,
2013-09-30 10:22:00,52.0,49.7,30.07,SSE,158,1.8,2.7,92,0.00,,,0.00,WUHU216HW,2013-09-30 14:22:00,
2013-09-30 10:27:00,53.1,50.2,30.07,ENE,68,0.7,2.7,90,0.00,,,0.00,WUHU216HW,2013-09-30 14:27:00,
2013-09-30 10:32:00,53.3,50.1,30.06,West,270,1.3,2.2,89,0.00,,,0.00,WUHU216HW,2013-09-30 14:32:00,
2013-09-30 10:37:00,52.9,49.8,30.06,NNW,338,0.4,1.8,89,0.00,,,0.00,WUHU216HW,2013-09-30 14:37:00,
2013-09-30 10:42:00,53.3,49.8,30.06,SE,135,0.0,2.2,88,0.00,,,0.00,WUHU216HW,2013-09-30 14:42:00,
2013-09-30 10:47:00,53.8,50.1,30.06,SE,135,1.1,3.1,87,0.00,,,0.00,WUHU216HW,2013-09-30 14:47:00,
2013-09-30 10:52:00,54.0,49.9,30.06,NE,45,0.4,3.1,86,0.00,,,0.00,WUHU216HW,2013-09-30 14:52:00,
2013-09-30 10:57:00,53.8,49.4,30.05,West,270,1.1,3.1,85,0.00,,,0.00,WUHU216HW,2013-09-30 14:57:00,
2013-09-30 11:02:00,53.8,49.4,30.05,WNW,293,1.8,2.9,85,0.00,,,0.00,WUHU216HW,2013-09-30 15:02:00,
2013-09-30 11:07:00,53.8,49.4,30.05,West,270,4.0,4.0,85,0.00,,,0.00,WUHU216HW,2013-09-30 15:07:00,
2013-09-30 11:11:00,54.2,49.8,30.05,West,270,2.7,4.0,85,0.00,,,0.00,WUHU216HW,2013-09-30 15:11:00,
2013-09-30 11:16:00,54.4,50.0,30.05,WSW,248,0.4,4.0,85,0.00,,,0.00,WUHU216HW,2013-09-30 15:16:00,
2013-09-30 11:21:00,55.1,50.6,30.04,NW,315,1.8,2.9,85,0.00,,,0.00,WUHU216HW,2013-09-30 15:21:00,
2013-09-30 11:26:00,55.8,50.9,30.04,North,0,0.7,3.1,84,0.00,,,0.00,WUHU216HW,2013-09-30 15:26:00,
2013-09-30 11:31:00,56.5,51.7,30.04,ENE,68,1.1,3.1,84,0.00,,,0.00,WUHU216HW,2013-09-30 15:31:00,
2013-09-30 11:36:00,57.2,52.4,30.04,North,0,0.4,2.5,84,0.00,,,0.00,WUHU216HW,2013-09-30 15:36:00,
2013-09-30 11:41:00,58.3,53.2,30.03,West,270,1.1,2.5,83,0.00,,,0.00,WUHU216HW,2013-09-30 15:41:00,
2013-09-30 11:46:00,59.0,53.6,30.03,SSW,203,1.1,3.4,82,0.00,,,0.00,WUHU216HW,2013-09-30 15:46:00,
2013-09-30 11:51:00,59.4,53.7,30.03,NNE,23,1.3,3.4,81,0.00,,,0.00,WUHU216HW,2013-09-30 15:51:00,
2013-09-30 11:57:00,60.1,53.6,30.02,SSW,203,1.8,2.7,79,0.00,,,0.00,WUHU216HW,2013-09-30 15:57:00,
2013-09-30 12:02:00,60.5,52.9,30.02,NW,315,0.4,2.5,76,0.00,,,0.00,WUHU216HW,2013-09-30 16:02:00,
2013-09-30 12:07:00,60.8,53.3,30.02,SSW,203,2.2,2.5,76,0.00,,,0.00,WUHU216HW,2013-09-30 16:07:00,
2013-09-30 12:12:00,61.4,53.7,30.02,SSW,203,2.7,4.0,76,0.00,,,0.00,WUHU216HW,2013-09-30 16:12:00,
2013-09-30 12:17:00,61.9,54.3,30.02,SSW,203,2.9,4.0,76,0.00,,,0.00,WUHU216HW,2013-09-30 16:17:00,
2013-09-30 12:22:00,62.6,54.5,30.02,SE,135,0.7,4.0,75,0.00,,,0.00,WUHU216HW,2013-09-30 16:22:00,
2013-09-30 12:27:00,63.2,54.7,30.02,West,270,1.3,2.9,74,0.00,,,0.00,WUHU216HW,2013-09-30 16:27:00,
2013-09-30 12:32:00,63.7,54.5,30.01,SSW,203,2.0,2.5,72,0.00,,,0.00,WUHU216HW,2013-09-30 16:32:00,
2013-09-30 12:37:00,63.7,54.2,30.01,SSW,203,2.9,2.9,71,0.00,,,0.00,WUHU216HW,2013-09-30 16:37:00,
2013-09-30 12:42:00,64.1,53.3,30.00,SSW,203,3.8,4.0,68,0.00,,,0.00,WUHU216HW,2013-09-30 16:42:00,
2013-09-30 12:47:00,64.4,54.5,30.00,ENE,68,1.1,4.0,70,0.00,,,0.00,WUHU216HW,2013-09-30 16:47:00,
2013-09-30 12:52:00,65.2,54.7,30.00,SSW,203,4.7,4.7,69,0.00,,,0.00,WUHU216HW,2013-09-30 16:52:00,
2013-09-30 12:57:00,65.9,55.0,30.00,SSW,203,2.9,5.1,68,0.00,,,0.00,WUHU216HW,2013-09-30 16:57:00,
2013-09-30 13:02:00,66.2,54.6,30.00,SW,225,1.8,5.1,66,0.00,,,0.00,WUHU216HW,2013-09-30 17:02:00,
2013-09-30 13:07:00,66.8,54.2,30.00,SE,135,3.1,4.0,64,0.00,,,0.00,WUHU216HW,2013-09-30 17:07:00,
2013-09-30 13:12:00,67.1,54.1,30.00,SSE,158,1.1,4.0,63,0.00,,,0.00,WUHU216HW,2013-09-30 17:12:00,
2013-09-30 13:17:00,67.5,54.0,30.00,SSW,203,4.9,4.9,62,0.00,,,0.00,WUHU216HW,2013-09-30 17:17:00,
2013-09-30 13:22:00,68.0,54.1,29.99,SW,225,1.1,4.9,61,0.00,,,0.00,WUHU216HW,2013-09-30 17:22:00,
2013-09-30 13:27:00,68.4,53.6,29.99,West,270,2.0,4.9,59,0.00,,,0.00,WUHU216HW,2013-09-30 17:27:00,
2013-09-30 13:32:00,68.8,52.4,29.99,WSW,248,1.1,2.5,56,0.00,,,0.00,WUHU216HW,2013-09-30 17:32:00,
2013-09-30 13:37:00,68.9,52.6,29.99,NNE,23,1.3,3.4,56,0.00,,,0.00,WUHU216HW,2013-09-30 17:37:00,
2013-09-30 13:42:00,69.3,53.4,29.99,SSW,203,2.5,3.4,57,0.00,,,0.00,WUHU216HW,2013-09-30 17:42:00,
2013-09-30 13:47:00,69.5,52.6,29.99,NNW,338,1.3,2.7,55,0.00,,,0.00,WUHU216HW,2013-09-30 17:47:00,
2013-09-30 13:52:00,69.5,51.1,29.99,SW,225,1.1,4.0,52,0.00,,,0.00,WUHU216HW,2013-09-30 17:52:00,
2013-09-30 13:57:00,69.5,50.6,29.98,East,90,1.8,4.0,51,0.00,,,0.00,WUHU216HW,2013-09-30 17:57:00,
2013-09-30 14:02:00,69.5,50.0,29.98,WSW,248,1.1,3.8,50,0.00,,,0.00,WUHU216HW,2013-09-30 18:02:00,
2013-09-30 14:07:00,69.5,49.5,29.98,ESE,113,2.2,3.6,49,0.00,,,0.00,WUHU216HW,2013-09-30 18:07:00,
2013-09-30 14:12:00,69.7,49.1,29.98,NNW,338,2.5,6.0,48,0.00,,,0.00,WUHU216HW,2013-09-30 18:12:00,
2013-09-30 14:17:00,70.0,48.8,29.97,North,0,2.5,6.0,47,0.00,,,0.00,WUHU216HW,2013-09-30 18:17:00,
2013-09-30 14:22:00,69.8,49.2,29.97,NNE,23,1.1,5.8,48,0.00,,,0.00,WUHU216HW,2013-09-30 18:22:00,
2013-09-30 14:27:00,70.0,49.4,29.97,East,90,5.8,5.8,48,0.00,,,0.00,WUHU216HW,2013-09-30 18:27:00,
2013-09-30 14:32:00,70.0,50.6,29.97,ENE,68,1.1,5.8,50,0.00,,,0.00,WUHU216HW,2013-09-30 18:32:00,
2013-09-30 14:37:00,70.2,50.1,29.97,ENE,68,1.1,5.8,49,0.00,,,0.00,WUHU216HW,2013-09-30 18:37:00,
2013-09-30 14:42:00,70.6,51.6,29.97,WSW,248,2.0,3.4,51,0.00,,,0.00,WUHU216HW,2013-09-30 18:42:00,
2013-09-30 14:47:00,70.9,50.2,29.97,ENE,68,3.4,6.0,48,0.00,,,0.00,WUHU216HW,2013-09-30 18:47:00,
2013-09-30 14:52:00,70.6,49.9,29.97,SSE,158,2.5,6.0,48,0.00,,,0.00,WUHU216HW,2013-09-30 18:52:00,
2013-09-30 14:57:00,70.9,51.4,29.97,SSW,203,4.0,4.0,50,0.00,,,0.00,WUHU216HW,2013-09-30 18:57:00,
2013-09-30 15:02:00,71.3,50.5,29.96,SSE,158,2.7,4.0,48,0.00,,,0.00,WUHU216HW,2013-09-30 19:02:00,
2013-09-30 15:07:00,71.3,51.7,29.96,SSE,158,1.3,4.0,50,0.00,,,0.00,WUHU216HW,2013-09-30 19:07:00,
2013-09-30 15:12:00,71.1,49.1,29.96,NNE,23,2.2,4.3,46,0.00,,,0.00,WUHU216HW,2013-09-30 19:12:00,
2013-09-30 15:17:00,71.3,50.0,29.95,ESE,113,0.9,4.3,47,0.00,,,0.00,WUHU216HW,2013-09-30 19:17:00,
2013-09-30 15:22:00,71.3,50.0,29.95,WNW,293,3.1,3.8,47,0.00,,,0.00,WUHU216HW,2013-09-30 19:22:00,
2013-09-30 15:27:00,71.3,46.4,29.95,NNE,23,4.3,4.9,41,0.00,,,0.00,WUHU216HW,2013-09-30 19:27:00,
2013-09-30 15:32:00,71.5,48.3,29.95,WSW,248,1.1,4.9,44,0.00,,,0.00,WUHU216HW,2013-09-30 19:32:00,
2013-09-30 15:37:00,71.6,49.1,29.95,SW,225,2.0,3.6,45,0.00,,,0.00,WUHU216HW,2013-09-30 19:37:00,
2013-09-30 15:42:00,71.8,49.8,29.95,WSW,248,0.4,4.0,46,0.00,,,0.00,WUHU216HW,2013-09-30 19:42:00,
2013-09-30 15:47:00,71.8,48.6,29.95,SSE,158,0.4,4.0,44,0.00,,,0.00,WUHU216HW,2013-09-30 19:47:00,
2013-09-30 15:52:00,72.0,50.0,29.95,West,270,1.1,1.8,46,0.00,,,0.00,WUHU216HW,2013-09-30 19:52:00,
2013-09-30 15:57:00,71.8,49.2,29.95,SSW,203,3.4,3.4,45,0.00,,,0.00,WUHU216HW,2013-09-30 19:57:00,
2013-09-30 16:02:00,71.8,49.2,29.94,NNW,338,0.4,3.4,45,0.00,,,0.00,WUHU216HW,2013-09-30 20:02:00,
2013-09-30 16:07:00,72.0,50.0,29.95,SW,225,1.3,3.4,46,0.00,,,0.00,WUHU216HW,2013-09-30 20:07:00,
2013-09-30 16:12:00,72.0,49.4,29.95,West,270,1.3,4.3,45,0.00,,,0.00,WUHU216HW,2013-09-30 20:12:00,
2013-09-30 16:17:00,72.0,50.0,29.95,NNW,338,0.4,4.3,46,0.00,,,0.00,WUHU216HW,2013-09-30 20:17:00,
2013-09-30 16:22:00,72.0,50.0,29.95,NW,315,0.0,1.8,46,0.00,,,0.00,WUHU216HW,2013-09-30 20:22:00,
2013-09-30 16:27:00,72.0,50.0,29.94,ESE,113,2.2,2.7,46,0.00,,,0.00,WUHU216HW,2013-09-30 20:27:00,
2013-09-30 16:32:00,71.8,49.8,29.95,ENE,68,1.6,2.7,46,0.00,,,0.00,WUHU216HW,2013-09-30 20:32:00,
2013-09-30 16:37:00,71.6,49.7,29.94,SSW,203,0.9,2.7,46,0.00,,,0.00,WUHU216HW,2013-09-30 20:37:00,
2013-09-30 16:42:00,71.8,49.8,29.94,SSW,203,1.1,1.6,46,0.00,,,0.00,WUHU216HW,2013-09-30 20:42:00,
2013-09-30 16:47:00,71.8,49.8,29.94,SW,225,1.8,2.2,46,0.00,,,0.00,WUHU216HW,2013-09-30 20:47:00,
2013-09-30 16:52:00,71.8,49.2,29.94,SW,225,2.5,2.7,45,0.00,,,0.00,WUHU216HW,2013-09-30 20:52:00,
2013-09-30 16:57:00,71.6,49.7,29.94,WNW,293,1.8,2.7,46,0.00,,,0.00,WUHU216HW,2013-09-30 20:57:00,
2013-09-30 17:02:00,71.6,49.7,29.94,SSE,158,0.4,2.7,46,0.00,,,0.00,WUHU216HW,2013-09-30 21:02:00,
2013-09-30 17:07:00,71.6,50.2,29.94,South,180,1.6,1.8,47,0.00,,,0.00,WUHU216HW,2013-09-30 21:07:00,
2013-09-30 17:12:00,71.6,50.9,29.94,South,180,1.1,1.8,48,0.00,,,0.00,WUHU216HW,2013-09-30 21:12:00,
2013-09-30 17:17:00,71.5,51.3,29.94,South,180,1.3,1.8,49,0.00,,,0.00,WUHU216HW,2013-09-30 21:17:00,
2013-09-30 17:22:00,71.1,52.0,29.94,SSE,158,1.1,1.3,51,0.00,,,0.00,WUHU216HW,2013-09-30 21:22:00,
2013-09-30 17:27:00,70.7,52.2,29.94,SSE,158,1.6,1.6,52,0.00,,,0.00,WUHU216HW,2013-09-30 21:27:00,
2013-09-30 17:32:00,70.0,51.6,29.94,South,180,1.1,1.8,52,0.00,,,0.00,WUHU216HW,2013-09-30 21:32:00,
2013-09-30 17:37:00,69.5,51.1,29.94,SSE,158,0.4,1.8,52,0.00,,,0.00,WUHU216HW,2013-09-30 21:37:00,
2013-09-30 17:42:00,68.8,51.0,29.94,South,180,0.0,1.3,53,0.00,,,0.00,WUHU216HW,2013-09-30 21:42:00,
2013-09-30 17:47:00,68.4,50.6,29.94,SSW,203,0.0,0.4,53,0.00,,,0.00,WUHU216HW,2013-09-30 21:47:00,
2013-09-30 17:52:00,67.9,50.6,29.94,SSE,158,0.0,0.0,54,0.00,,,0.00,WUHU216HW,2013-09-30 21:52:00,
2013-09-30 17:57:00,67.3,50.6,29.94,South,180,0.4,1.1,55,0.00,,,0.00,WUHU216HW,2013-09-30 21:57:00,
2013-09-30 18:02:00,66.6,50.4,29.94,South,180,0.0,1.1,56,0.00,,,0.00,WUHU216HW,2013-09-30 22:02:00,
2013-09-30 18:07:00,65.7,50.1,29.95,SSE,158,1.3,1.6,57,0.00,,,0.00,WUHU216HW,2013-09-30 22:07:00,
2013-09-30 18:12:00,65.0,49.3,29.95,SSW,203,1.3,1.6,57,0.00,,,0.00,WUHU216HW,2013-09-30 22:12:00,
2013-09-30 18:17:00,64.1,49.0,29.95,SSW,203,0.0,1.6,58,0.00,,,0.00,WUHU216HW,2013-09-30 22:17:00,
2013-09-30 18:22:00,63.0,48.4,29.95,SSW,203,0.0,1.3,59,0.00,,,0.00,WUHU216HW,2013-09-30 22:22:00,
2013-09-30 18:27:00,62.3,48.7,29.95,West,270,0.2,0.4,61,0.00,,,0.00,WUHU216HW,2013-09-30 22:27:00,
2013-09-30 18:32:00,61.6,48.4,29.95,WSW,248,0.0,0.4,62,0.00,,,0.00,WUHU216HW,2013-09-30 22:32:00,
2013-09-30 18:37:00,60.8,48.3,29.95,West,270,0.0,0.4,63,0.00,,,0.00,WUHU216HW,2013-09-30 22:37:00,
2013-09-30 18:42:00,60.1,48.3,29.95,NNE,23,1.1,1.1,65,0.00,,,0.00,WUHU216HW,2013-09-30 22:42:00,
2013-09-30 18:47:00,58.7,48.5,29.95,NNE,23,0.4,1.3,69,0.00,,,0.00,WUHU216HW,2013-09-30 22:47:00,
2013-09-30 18:52:00,58.1,47.6,29.95,West,270,0.7,1.3,68,0.00,,,0.00,WUHU216HW,2013-09-30 22:52:00,
2013-09-30 18:57:00,57.8,47.3,29.95,SSW,203,0.7,1.1,68,0.00,,,0.00,WUHU216HW,2013-09-30 22:57:00,
2013-09-30 19:02:00,57.2,47.2,29.95,SSW,203,0.0,1.1,69,0.00,,,0.00,WUHU216HW,2013-09-30 23:02:00,
2013-09-30 19:07:00,56.9,48.2,29.95,NNE,23,1.6,1.6,73,0.00,,,0.00,WUHU216HW,2013-09-30 23:07:00,
2013-09-30 19:12:00,55.8,47.3,29.95,NNW,338,0.4,1.6,73,0.00,,,0.00,WUHU216HW,2013-09-30 23:12:00,
2013-09-30 19:17:00,55.3,46.7,29.95,ENE,68,0.0,1.6,73,0.00,,,0.00,WUHU216HW,2013-09-30 23:17:00,
2013-09-30 19:22:00,54.7,46.3,29.95,SE,135,0.0,0.9,73,0.00,,,0.00,WUHU216HW,2013-09-30 23:22:00,
2013-09-30 19:27:00,54.4,46.3,29.95,NE,45,0.0,0.9,74,0.00,,,0.00,WUHU216HW,2013-09-30 23:27:00,
2013-09-30 19:32:00,53.8,46.1,29.96,NNW,338,0.7,0.7,75,0.00,,,0.00,WUHU216HW,2013-09-30 23:32:00,
2013-09-30 19:37:00,53.5,46.1,29.96,NW,315,0.7,1.1,76,0.00,,,0.00,WUHU216HW,2013-09-30 23:37:00,
2013-09-30 19:42:00,52.9,45.9,29.97,North,0,0.7,1.1,77,0.00,,,0.00,WUHU216HW,2013-09-30 23:42:00,
2013-09-30 19:47:00,52.4,45.4,29.97,East,90,1.8,1.8,77,0.00,,,0.00,WUHU216HW,2013-09-30 23:47:00,
2013-09-30 19:52:00,52.2,46.3,29.96,SE,135,2.9,5.8,80,0.00,,,0.00,WUHU216HW,2013-09-30 23:52:00,
2013-09-30 19:57:00,52.4,47.1,29.96,NNE,23,0.7,5.8,82,0.00,,,0.00,WUHU216HW,2013-09-30 23:57:00,
2013-09-30 20:02:00,52.2,46.3,29.96,NW,315,0.7,4.0,80,0.00,,,0.00,WUHU216HW,2013-10-01 00:02:00,
2013-09-30 20:07:00,52.0,46.1,29.96,NNW,338,1.6,1.8,80,0.00,,,0.00,WUHU216HW,2013-10-01 00:07:00,
2013-09-30 20:12:00,51.8,45.5,29.97,SW,225,0.0,2.2,79,0.00,,,0.00,WUHU216HW,2013-10-01 00:12:00,
2013-09-30 20:17:00,51.5,45.2,29.97,NW,315,0.9,2.2,79,0.00,,,0.00,WUHU216HW,2013-10-01 00:17:00,
2013-09-30 20:22:00,51.1,45.2,29.97,NW,315,0.0,0.9,80,0.00,,,0.00,WUHU216HW,2013-10-01 00:22:00,
2013-09-30 20:27:00,50.8,44.8,29.97,NNW,338,0.0,0.7,80,0.00,,,0.00,WUHU216HW,2013-10-01 00:27:00,
2013-09-30 20:32:00,50.2,44.3,29.97,NNE,23,0.4,0.7,80,0.00,,,0.00,WUHU216HW,2013-10-01 00:32:00,
2013-09-30 20:37:00,49.9,44.6,29.97,NNE,23,0.7,1.1,82,0.00,,,0.00,WUHU216HW,2013-10-01 00:37:00,
2013-09-30 20:42:00,49.5,44.2,29.98,NNE,23,0.9,1.1,82,0.00,,,0.00,WUHU216HW,2013-10-01 00:42:00,
2013-09-30 20:47:00,49.3,44.0,29.98,North,0,0.0,1.3,82,0.00,,,0.00,WUHU216HW,2013-10-01 00:47:00,
2013-09-30 20:52:00,49.0,43.7,29.97,North,0,0.0,1.3,82,0.00,,,0.00,WUHU216HW,2013-10-01 00:52:00,
2013-09-30 20:57:00,49.0,44.0,29.98,North,0,0.0,0.0,83,0.00,,,0.00,WUHU216HW,2013-10-01 00:57:00,
2013-09-30 21:02:00,48.6,43.7,29.98,NNW,338,0.4,1.1,83,0.00,,,0.00,WUHU216HW,2013-10-01 01:02:00,
2013-09-30 21:07:00,48.4,43.5,29.98,North,0,0.0,1.1,83,0.00,,,0.00,WUHU216HW,2013-10-01 01:07:00,
2013-09-30 21:12:00,48.2,42.9,29.98,NNW,338,0.0,0.4,82,0.00,,,0.00,WUHU216HW,2013-10-01 01:12:00,
2013-09-30 21:17:00,47.9,42.7,29.97,NNW,338,0.0,0.4,82,0.00,,,0.00,WUHU216HW,2013-10-01 01:17:00,
2013-09-30 21:22:00,47.7,42.8,29.97,NW,315,0.9,1.1,83,0.00,,,0.00,WUHU216HW,2013-10-01 01:22:00,
2013-09-30 21:27:00,47.5,42.6,29.97,NNW,338,0.0,1.1,83,0.00,,,0.00,WUHU216HW,2013-10-01 01:27:00,
2013-09-30 21:32:00,47.2,42.3,29.97,NNW,338,0.0,0.9,83,0.00,,,0.00,WUHU216HW,2013-10-01 01:32:00,
2013-09-30 21:37:00,47.0,42.1,29.97,NNW,338,0.0,0.0,83,0.00,,,0.00,WUHU216HW,2013-10-01 01:37:00,
2013-09-30 21:42:00,46.8,42.0,29.97,NNW,338,0.0,0.0,83,0.00,,,0.00,WUHU216HW,2013-10-01 01:42:00,
2013-09-30 21:47:00,46.4,41.6,29.97,NNW,338,0.0,0.0,83,0.00,,,0.00,WUHU216HW,2013-10-01 01:47:00,
2013-09-30 21:52:00,46.3,41.4,29.97,NNW,338,0.0,0.0,83,0.00,,,0.00,WUHU216HW,2013-10-01 01:52:00,
2013-09-30 21:57:00,46.1,41.6,29.97,NNW,338,0.0,0.0,84,0.00,,,0.00,WUHU216HW,2013-10-01 01:57:00,
2013-09-30 22:02:00,45.9,41.4,29.97,NNW,338,0.0,0.0,84,0.00,,,0.00,WUHU216HW,2013-10-01 02:02:00,
2013-09-30 22:07:00,45.7,41.2,29.97,NNW,338,0.0,0.0,84,0.00,,,0.00,WUHU216HW,2013-10-01 02:07:00,
2013-09-30 22:12:00,45.5,41.1,29.97,NNE,23,0.4,0.4,84,0.00,,,0.00,WUHU216HW,2013-10-01 02:12:00,
2013-09-30 22:17:00,45.2,41.0,29.97,NE,45,1.3,1.3,85,0.00,,,0.00,WUHU216HW,2013-10-01 02:17:00,
2013-09-30 22:22:00,45.4,41.8,29.97,NNW,338,0.0,1.3,87,0.00,,,0.00,WUHU216HW,2013-10-01 02:22:00,
2013-09-30 22:27:00,45.4,41.4,29.97,NNW,338,0.0,1.3,86,0.00,,,0.00,WUHU216HW,2013-10-01 02:27:00,
2013-09-30 22:32:00,45.0,41.0,29.97,North,0,0.0,1.1,86,0.00,,,0.00,WUHU216HW,2013-10-01 02:32:00,
2013-09-30 22:37:00,44.6,40.7,29.97,North,0,0.0,0.0,86,0.00,,,0.00,WUHU216HW,2013-10-01 02:37:00,
2013-09-30 22:42:00,44.5,40.5,29.97,NNW,338,0.7,1.1,86,0.00,,,0.00,WUHU216HW,2013-10-01 02:42:00,
2013-09-30 22:47:00,44.3,40.3,29.97,WNW,293,0.7,1.1,86,0.00,,,0.00,WUHU216HW,2013-10-01 02:47:00,
2013-09-30 22:52:00,44.5,40.5,29.97,WNW,293,0.0,1.1,86,0.00,,,0.00,WUHU216HW,2013-10-01 02:52:00,
2013-09-30 22:57:00,44.3,40.3,29.97,NNW,338,0.0,0.9,86,0.00,,,0.00,WUHU216HW,2013-10-01 02:57:00,
2013-09-30 23:02:00,43.9,40.0,29.97,North,0,0.0,0.0,86,0.00,,,0.00,WUHU216HW,2013-10-01 03:02:00,
2013-09-30 23:07:00,43.6,39.6,29.97,North,0,0.0,0.0,86,0.00,,,0.00,WUHU216HW,2013-10-01 03:07:00,
2013-09-30 23:12:00,43.6,39.6,29.97,North,0,0.0,0.0,86,0.00,,,0.00,WUHU216HW,2013-10-01 03:12:00,
2013-09-30 23:17:00,43.4,39.4,29.98,NNE,23,0.9,0.9,86,0.00,,,0.00,WUHU216HW,2013-10-01 03:17:00,
2013-09-30 23:22:00,43.2,39.0,29.98,NNE,23,0.0,1.1,85,0.00,,,0.00,WUHU216HW,2013-10-01 03:22:00,
2013-09-30 23:27:00,42.8,38.9,29.98,NNW,338,0.7,1.1,86,0.00,,,0.00,WUHU216HW,2013-10-01 03:27:00,
2013-09-30 23:32:00,42.8,38.9,29.98,NNW,338,0.0,0.9,86,0.00,,,0.00,WUHU216HW,2013-10-01 03:32:00,
2013-09-30 23:37:00,42.7,38.7,29.97,NNW,338,0.0,1.1,86,0.00,,,0.00,WUHU216HW,2013-10-01 03:37:00,
2013-09-30 23:42:00,42.5,38.5,29.98,NNE,23,0.7,1.1,86,0.00,,,0.00,WUHU216HW,2013-10-01 03:42:00,
2013-09-30 23:47:00,42.1,38.2,29.97,NNE,23,0.0,1.1,86,0.00,,,0.00,WUHU216HW,2013-10-01 03:47:00,
2013-09-30 23:52:00,42.1,38.2,29.97,NNE,23,0.0,1.1,86,0.00,,,0.00,WUHU216HW,2013-10-01 03:52:00,
2013-09-30 23:57:00,42.1,38.2,29.97,NNW,338,0.0,0.0,86,0.00,,,0.00,WUHU216HW,2013-10-01 03:57:00,